Wrigley, Kentucky
Current Conditions -  °F | °C
As of 12:10 PM on Friday 28 Nov 2014 (Local Time) from KSYM Reporting Station
Overcast Overcast  
Wind Chill: 32°   Ceiling: 7000
Heat Index: 32°   Visibility: 10mi
Dew Point: 19°   Wind: 3mph
Humidity: 60%   Direction: NA
Pressure: 30.37"   Gusts: NA
Location:  38.02°N, 83.27°W
Report Text: KSYM 281710Z AUTO VRB03KT 10SM FEW027 BKN070 OVC100 M00/M07 A3037 RMK AO2
Loading
Personal Weather Stations






























Interactive Weather Map New forecast layout! Learn more

10-Day Weather Forecast

Advertisements
Track Severe Weather on mobile